Terminal Aerodrome Forecast
Issued by NWS

Home | Current Version | Previous Version | Text Only | Print | Product List | Glossary On
Versions: 1 2 3 4 5 6 7 8 9 10 11 12 13 14 15 16 17 18 19 20 21 22 23 24
000
FTUS43 KAPX 231130
TAFAPN
TAF
KAPN 231130Z 2312/2412 30009KT 5SM BR OVC008
     FM231500 31009KT P6SM OVC015
     FM231700 31009KT P6SM BKN022
     FM231900 33009KT P6SM BKN060
     FM240900 04005KT 3SM -SN OVC015=

USA.gov is the U.S. government's official web portal to all federal, state and local government web resources and services.